sensor_id;sensor_type;location;lat;lon;timestamp;pressure;altitude;pressure_sealevel;temperature;humidity
8286;BME280;4181;43.416;24.598;2023-03-24T00:02:18;100148.81;;;10.64;100.00
8286;BME280;4181;43.416;24.598;2023-03-24T00:04:47;100143.75;;;10.73;100.00
8286;BME280;4181;43.416;24.598;2023-03-24T00:07:14;100146.94;;;10.86;100.00
8286;BME280;4181;43.416;24.598;2023-03-24T00:09:41;100135.84;;;10.93;100.00
8286;BME280;4181;43.416;24.598;2023-03-24T00:12:09;100143.78;;;10.94;100.00
8286;BME280;4181;43.416;24.598;2023-03-24T00:14:36;100158.13;;;11.06;100.00
8286;BME280;4181;43.416;24.598;2023-03-24T00:17:04;100156.97;;;11.02;100.00
8286;BME280;4181;43.416;24.598;2023-03-24T00:19:31;100162.56;;;11.12;100.00
8286;BME280;4181;43.416;24.598;2023-03-24T00:21:59;100161.22;;;11.15;100.00
8286;BME280;4181;43.416;24.598;2023-03-24T00:24:25;100157.63;;;11.09;100.00
8286;BME280;4181;43.416;24.598;2023-03-24T00:26:51;100167.91;;;11.02;100.00
8286;BME280;4181;43.416;24.598;2023-03-24T00:29:22;100149.22;;;10.94;100.00
8286;BME280;4181;43.416;24.598;2023-03-24T00:31:49;100161.97;;;10.89;100.00
8286;BME280;4181;43.416;24.598;2023-03-24T00:34:17;100156.19;;;10.85;100.00
8286;BME280;4181;43.416;24.598;2023-03-24T00:36:46;100132.81;;;10.51;100.00
8286;BME280;4181;43.416;24.598;2023-03-24T00:39:13;100127.09;;;10.53;100.00
8286;BME280;4181;43.416;24.598;2023-03-24T00:41:41;100157.22;;;10.79;100.00
8286;BME280;4181;43.416;24.598;2023-03-24T00:44:09;100145.84;;;10.87;100.00
8286;BME280;4181;43.416;24.598;2023-03-24T00:46:47;100160.41;;;10.93;100.00
8286;BME280;4181;43.416;24.598;2023-03-24T00:49:26;100155.88;;;10.82;100.00
8286;BME280;4181;43.416;24.598;2023-03-24T00:52:14;100167.13;;;10.85;100.00
8286;BME280;4181;43.416;24.598;2023-03-24T00:54:43;100151.09;;;10.72;100.00
8286;BME280;4181;43.416;24.598;2023-03-24T00:57:10;100152.09;;;10.83;100.00
8286;BME280;4181;43.416;24.598;2023-03-24T00:59:48;100158.75;;;10.92;100.00
8286;BME280;4181;43.416;24.598;2023-03-24T01:02:20;100159.50;;;10.87;100.00
8286;BME280;4181;43.416;24.598;2023-03-24T01:04:54;100165.06;;;10.76;100.00
8286;BME280;4181;43.416;24.598;2023-03-24T01:07:21;100169.63;;;10.70;100.00
8286;BME280;4181;43.416;24.598;2023-03-24T01:09:48;100161.38;;;10.65;100.00
8286;BME280;4181;43.416;24.598;2023-03-24T01:12:25;100144.34;;;10.58;100.00
8286;BME280;4181;43.416;24.598;2023-03-24T01:14:51;100158.84;;;10.80;100.00
8286;BME280;4181;43.416;24.598;2023-03-24T01:17:18;100169.84;;;10.85;100.00
8286;BME280;4181;43.416;24.598;2023-03-24T01:19:44;100200.75;;;10.53;100.00
8286;BME280;4181;43.416;24.598;2023-03-24T01:22:09;100172.06;;;10.34;100.00
8286;BME280;4181;43.416;24.598;2023-03-24T01:24:35;100191.84;;;10.24;100.00
8286;BME280;4181;43.416;24.598;2023-03-24T01:27:01;100198.94;;;10.25;100.00
8286;BME280;4181;43.416;24.598;2023-03-24T01:29:27;100199.44;;;10.22;100.00
8286;BME280;4181;43.416;24.598;2023-03-24T01:31:52;100190.91;;;10.35;100.00
8286;BME280;4181;43.416;24.598;2023-03-24T01:34:18;100161.91;;;10.29;100.00
8286;BME280;4181;43.416;24.598;2023-03-24T01:36:43;100168.03;;;10.36;100.00
8286;BME280;4181;43.416;24.598;2023-03-24T01:39:09;100163.56;;;10.30;100.00
8286;BME280;4181;43.416;24.598;2023-03-24T01:41:37;100168.84;;;10.37;100.00
8286;BME280;4181;43.416;24.598;2023-03-24T01:44:32;100176.47;;;10.18;100.00
8286;BME280;4181;43.416;24.598;2023-03-24T01:46:59;100153.22;;;9.99;100.00
8286;BME280;4181;43.416;24.598;2023-03-24T01:49:30;100169.59;;;10.15;100.00
8286;BME280;4181;43.416;24.598;2023-03-24T01:51:59;100174.81;;;10.34;100.00
8286;BME280;4181;43.416;24.598;2023-03-24T01:54:33;100184.88;;;10.33;100.00
8286;BME280;4181;43.416;24.598;2023-03-24T01:57:08;100186.19;;;10.47;100.00
8286;BME280;4181;43.416;24.598;2023-03-24T01:59:38;100196.88;;;10.49;100.00
8286;BME280;4181;43.416;24.598;2023-03-24T02:02:05;100160.41;;;10.21;100.00
8286;BME280;4181;43.416;24.598;2023-03-24T02:04:33;100185.03;;;10.10;100.00
8286;BME280;4181;43.416;24.598;2023-03-24T02:07:09;100198.59;;;10.21;100.00
8286;BME280;4181;43.416;24.598;2023-03-24T02:09:36;100180.75;;;10.14;100.00
8286;BME280;4181;43.416;24.598;2023-03-24T02:12:02;100189.03;;;10.19;100.00
8286;BME280;4181;43.416;24.598;2023-03-24T02:14:28;100189.63;;;9.93;100.00
8286;BME280;4181;43.416;24.598;2023-03-24T02:33:39;100145.28;;;9.81;100.00
8286;BME280;4181;43.416;24.598;2023-03-24T02:47:24;100135.09;;;9.32;100.00
8286;BME280;4181;43.416;24.598;2023-03-24T02:55:35;100103.47;;;9.59;100.00
8286;BME280;4181;43.416;24.598;2023-03-24T03:01:05;100122.53;;;9.59;100.00
8286;BME280;4181;43.416;24.598;2023-03-24T03:03:43;100110.44;;;9.38;100.00
8286;BME280;4181;43.416;24.598;2023-03-24T03:06:26;100110.47;;;9.55;100.00
8286;BME280;4181;43.416;24.598;2023-03-24T03:08:54;100097.94;;;9.54;100.00
8286;BME280;4181;43.416;24.598;2023-03-24T03:11:22;100117.44;;;9.79;100.00
8286;BME280;4181;43.416;24.598;2023-03-24T03:13:52;100113.47;;;9.86;100.00
8286;BME280;4181;43.416;24.598;2023-03-24T03:16:50;100125.97;;;9.99;100.00
8286;BME280;4181;43.416;24.598;2023-03-24T03:19:29;100115.81;;;9.78;100.00
8286;BME280;4181;43.416;24.598;2023-03-24T03:21:56;100131.91;;;9.96;100.00
8286;BME280;4181;43.416;24.598;2023-03-24T03:24:30;100127.94;;;9.87;100.00
8286;BME280;4181;43.416;24.598;2023-03-24T03:27:06;100138.91;;;9.92;100.00
8286;BME280;4181;43.416;24.598;2023-03-24T03:29:38;100147.34;;;9.90;100.00
8286;BME280;4181;43.416;24.598;2023-03-24T03:32:08;100144.19;;;9.82;100.00
8286;BME280;4181;43.416;24.598;2023-03-24T03:39:49;100168.25;;;9.57;100.00
8286;BME280;4181;43.416;24.598;2023-03-24T03:42:17;100148.28;;;9.51;100.00
8286;BME280;4181;43.416;24.598;2023-03-24T03:44:43;100161.34;;;9.66;100.00
8286;BME280;4181;43.416;24.598;2023-03-24T03:47:10;100141.69;;;9.64;100.00
8286;BME280;4181;43.416;24.598;2023-03-24T03:49:35;100144.34;;;9.75;100.00
8286;BME280;4181;43.416;24.598;2023-03-24T03:52:01;100116.50;;;9.57;100.00
8286;BME280;4181;43.416;24.598;2023-03-24T03:54:29;100146.47;;;9.73;100.00
8286;BME280;4181;43.416;24.598;2023-03-24T03:56:55;100131.97;;;9.40;100.00
8286;BME280;4181;43.416;24.598;2023-03-24T03:59:30;100144.97;;;9.49;100.00
8286;BME280;4181;43.416;24.598;2023-03-24T04:02:15;100138.94;;;9.47;100.00
8286;BME280;4181;43.416;24.598;2023-03-24T04:16:02;100150.31;;;9.16;100.00
8286;BME280;4181;43.416;24.598;2023-03-24T04:19:22;100169.72;;;9.08;100.00
8286;BME280;4181;43.416;24.598;2023-03-24T04:30:22;100131.91;;;9.23;100.00
8286;BME280;4181;43.416;24.598;2023-03-24T04:33:00;100138.94;;;9.47;100.00
8286;BME280;4181;43.416;24.598;2023-03-24T04:35:39;100160.81;;;9.52;100.00
8286;BME280;4181;43.416;24.598;2023-03-24T04:38:23;100173.69;;;9.29;100.00
8286;BME280;4181;43.416;24.598;2023-03-24T04:40:53;100153.56;;;9.58;100.00
8286;BME280;4181;43.416;24.598;2023-03-24T04:43:22;100151.94;;;9.90;100.00
8286;BME280;4181;43.416;24.598;2023-03-24T04:45:51;100147.03;;;10.37;100.00
8286;BME280;4181;43.416;24.598;2023-03-24T04:48:22;100142.59;;;10.69;100.00
8286;BME280;4181;43.416;24.598;2023-03-24T04:50:53;100150.47;;;10.87;100.00
8286;BME280;4181;43.416;24.598;2023-03-24T04:53:20;100157.81;;;11.03;100.00
8286;BME280;4181;43.416;24.598;2023-03-24T04:58:18;100175.44;;;11.38;100.00
8286;BME280;4181;43.416;24.598;2023-03-24T05:00:44;100170.28;;;11.64;100.00
8286;BME280;4181;43.416;24.598;2023-03-24T05:03:11;100164.00;;;11.90;100.00
8286;BME280;4181;43.416;24.598;2023-03-24T05:05:48;100171.25;;;12.06;100.00
8286;BME280;4181;43.416;24.598;2023-03-24T05:08:15;100148.94;;;12.19;100.00
8286;BME280;4181;43.416;24.598;2023-03-24T05:10:41;100164.50;;;12.50;100.00
8286;BME280;4181;43.416;24.598;2023-03-24T05:13:08;100168.84;;;12.46;100.00
8286;BME280;4181;43.416;24.598;2023-03-24T05:15:34;100154.97;;;12.21;100.00
8286;BME280;4181;43.416;24.598;2023-03-24T05:18:00;100163.44;;;12.56;100.00
8286;BME280;4181;43.416;24.598;2023-03-24T05:20:26;100164.91;;;12.73;100.00
8286;BME280;4181;43.416;24.598;2023-03-24T05:22:52;100163.03;;;12.79;100.00
8286;BME280;4181;43.416;24.598;2023-03-24T05:25:18;100164.78;;;13.00;100.00
8286;BME280;4181;43.416;24.598;2023-03-24T05:27:44;100147.69;;;13.20;100.00
8286;BME280;4181;43.416;24.598;2023-03-24T05:30:12;100159.47;;;13.25;100.00
8286;BME280;4181;43.416;24.598;2023-03-24T05:32:38;100166.69;;;13.51;100.00
8286;BME280;4181;43.416;24.598;2023-03-24T05:35:04;100145.06;;;13.55;100.00
8286;BME280;4181;43.416;24.598;2023-03-24T05:37:29;100142.34;;;13.70;100.00
8286;BME280;4181;43.416;24.598;2023-03-24T05:39:55;100170.59;;;13.85;100.00
8286;BME280;4181;43.416;24.598;2023-03-24T05:42:20;100163.22;;;14.01;100.00
8286;BME280;4181;43.416;24.598;2023-03-24T05:44:46;100148.13;;;14.24;100.00
8286;BME280;4181;43.416;24.598;2023-03-24T05:47:13;100139.13;;;14.28;100.00
8286;BME280;4181;43.416;24.598;2023-03-24T05:49:41;100152.53;;;14.70;100.00
8286;BME280;4181;43.416;24.598;2023-03-24T05:52:07;100158.25;;;14.88;100.00
8286;BME280;4181;43.416;24.598;2023-03-24T05:54:34;100142.06;;;14.87;100.00
8286;BME280;4181;43.416;24.598;2023-03-24T05:56:59;100155.69;;;15.17;100.00
8286;BME280;4181;43.416;24.598;2023-03-24T05:59:26;100133.06;;;15.35;100.00
8286;BME280;4181;43.416;24.598;2023-03-24T06:01:51;100133.47;;;15.62;100.00
8286;BME280;4181;43.416;24.598;2023-03-24T06:04:23;100133.78;;;15.99;100.00
8286;BME280;4181;43.416;24.598;2023-03-24T06:06:49;100137.50;;;16.18;100.00
8286;BME280;4181;43.416;24.598;2023-03-24T06:09:14;100142.34;;;16.31;100.00
8286;BME280;4181;43.416;24.598;2023-03-24T06:11:42;100126.19;;;16.54;100.00
8286;BME280;4181;43.416;24.598;2023-03-24T06:14:07;100141.41;;;16.75;100.00
8286;BME280;4181;43.416;24.598;2023-03-24T06:16:33;100121.56;;;16.73;100.00
8286;BME280;4181;43.416;24.598;2023-03-24T06:19:03;100147.22;;;16.97;100.00
8286;BME280;4181;43.416;24.598;2023-03-24T06:21:31;100141.41;;;16.98;100.00
8286;BME280;4181;43.416;24.598;2023-03-24T06:23:56;100143.69;;;17.15;100.00
8286;BME280;4181;43.416;24.598;2023-03-24T06:26:23;100146.31;;;17.25;100.00
8286;BME280;4181;43.416;24.598;2023-03-24T06:28:48;100135.53;;;17.52;100.00
8286;BME280;4181;43.416;24.598;2023-03-24T06:31:19;100142.78;;;17.85;100.00
8286;BME280;4181;43.416;24.598;2023-03-24T06:33:50;100138.22;;;17.94;100.00
8286;BME280;4181;43.416;24.598;2023-03-24T06:36:16;100126.34;;;18.12;100.00
8286;BME280;4181;43.416;24.598;2023-03-24T06:38:43;100128.25;;;18.30;100.00
8286;BME280;4181;43.416;24.598;2023-03-24T06:41:10;100133.53;;;18.45;100.00
8286;BME280;4181;43.416;24.598;2023-03-24T06:43:35;100116.16;;;18.58;100.00
8286;BME280;4181;43.416;24.598;2023-03-24T06:46:01;100129.28;;;18.80;100.00
8286;BME280;4181;43.416;24.598;2023-03-24T06:48:27;100119.28;;;18.84;100.00
8286;BME280;4181;43.416;24.598;2023-03-24T06:50:53;100114.34;;;18.94;100.00
8286;BME280;4181;43.416;24.598;2023-03-24T06:53:20;100130.75;;;19.32;100.00
8286;BME280;4181;43.416;24.598;2023-03-24T06:55:48;100126.72;;;19.65;100.00
8286;BME280;4181;43.416;24.598;2023-03-24T06:58:15;100125.94;;;19.86;100.00
8286;BME280;4181;43.416;24.598;2023-03-24T07:00:42;100117.44;;;20.19;100.00
8286;BME280;4181;43.416;24.598;2023-03-24T07:03:11;100085.13;;;20.36;100.00
8286;BME280;4181;43.416;24.598;2023-03-24T07:05:43;100110.53;;;20.60;100.00
8286;BME280;4181;43.416;24.598;2023-03-24T07:08:09;100108.63;;;20.69;100.00
8286;BME280;4181;43.416;24.598;2023-03-24T07:10:38;100088.56;;;20.72;100.00
8286;BME280;4181;43.416;24.598;2023-03-24T07:13:06;100082.63;;;20.57;100.00
8286;BME280;4181;43.416;24.598;2023-03-24T07:15:32;100105.94;;;20.95;100.00
8286;BME280;4181;43.416;24.598;2023-03-24T07:17:58;100108.19;;;21.15;100.00
8286;BME280;4181;43.416;24.598;2023-03-24T07:20:24;100125.06;;;21.35;100.00
8286;BME280;4181;43.416;24.598;2023-03-24T07:22:50;100114.63;;;21.41;100.00
8286;BME280;4181;43.416;24.598;2023-03-24T07:25:15;100063.81;;;21.23;100.00
8286;BME280;4181;43.416;24.598;2023-03-24T07:27:45;100098.16;;;21.62;100.00
8286;BME280;4181;43.416;24.598;2023-03-24T07:30:11;100093.94;;;21.64;100.00
8286;BME280;4181;43.416;24.598;2023-03-24T07:32:38;100080.72;;;21.70;100.00
8286;BME280;4181;43.416;24.598;2023-03-24T07:35:06;100107.38;;;21.96;100.00
8286;BME280;4181;43.416;24.598;2023-03-24T07:37:32;100093.13;;;22.15;100.00
8286;BME280;4181;43.416;24.598;2023-03-24T07:39:57;100052.63;;;21.97;100.00
8286;BME280;4181;43.416;24.598;2023-03-24T07:42:23;100075.97;;;22.21;100.00
8286;BME280;4181;43.416;24.598;2023-03-24T07:44:50;100079.72;;;22.25;100.00
8286;BME280;4181;43.416;24.598;2023-03-24T07:47:15;100053.22;;;22.28;100.00
8286;BME280;4181;43.416;24.598;2023-03-24T07:49:41;100080.66;;;22.46;100.00
8286;BME280;4181;43.416;24.598;2023-03-24T07:52:07;100050.22;;;22.50;100.00
8286;BME280;4181;43.416;24.598;2023-03-24T07:54:32;100051.53;;;22.61;100.00
8286;BME280;4181;43.416;24.598;2023-03-24T07:56:59;100090.41;;;22.78;100.00
8286;BME280;4181;43.416;24.598;2023-03-24T07:59:24;100051.72;;;22.56;100.00
8286;BME280;4181;43.416;24.598;2023-03-24T08:01:51;100072.59;;;22.71;100.00
8286;BME280;4181;43.416;24.598;2023-03-24T08:04:16;100052.66;;;22.60;100.00
8286;BME280;4181;43.416;24.598;2023-03-24T08:06:42;100087.31;;;22.71;100.00
8286;BME280;4181;43.416;24.598;2023-03-24T08:09:08;100080.09;;;22.70;100.00
8286;BME280;4181;43.416;24.598;2023-03-24T08:11:35;100040.38;;;22.70;100.00
8286;BME280;4181;43.416;24.598;2023-03-24T08:14:02;100084.75;;;22.95;100.00
8286;BME280;4181;43.416;24.598;2023-03-24T08:16:28;100067.00;;;22.79;100.00
8286;BME280;4181;43.416;24.598;2023-03-24T08:18:53;100071.66;;;22.96;100.00
8286;BME280;4181;43.416;24.598;2023-03-24T08:21:23;100057.44;;;22.89;100.00
8286;BME280;4181;43.416;24.598;2023-03-24T08:23:48;100047.22;;;23.10;100.00
8286;BME280;4181;43.416;24.598;2023-03-24T08:26:14;100073.78;;;23.36;100.00
8286;BME280;4181;43.416;24.598;2023-03-24T08:28:40;100020.75;;;23.24;100.00
8286;BME280;4181;43.416;24.598;2023-03-24T08:31:06;100048.75;;;23.48;100.00
8286;BME280;4181;43.416;24.598;2023-03-24T08:33:32;100028.63;;;23.51;100.00
8286;BME280;4181;43.416;24.598;2023-03-24T08:35:57;100019.03;;;23.40;100.00
8286;BME280;4181;43.416;24.598;2023-03-24T08:38:25;100057.75;;;23.74;100.00
8286;BME280;4181;43.416;24.598;2023-03-24T08:40:58;100057.97;;;23.69;100.00
8286;BME280;4181;43.416;24.598;2023-03-24T08:43:27;100040.63;;;23.64;100.00
8286;BME280;4181;43.416;24.598;2023-03-24T08:45:55;100053.88;;;23.88;100.00
8286;BME280;4181;43.416;24.598;2023-03-24T08:48:20;100024.09;;;24.00;100.00
8286;BME280;4181;43.416;24.598;2023-03-24T08:50:47;100029.47;;;24.05;100.00
8286;BME280;4181;43.416;24.598;2023-03-24T08:53:12;100038.00;;;24.21;100.00
8286;BME280;4181;43.416;24.598;2023-03-24T08:55:39;100045.25;;;24.34;100.00
8286;BME280;4181;43.416;24.598;2023-03-24T08:58:11;100048.88;;;24.14;100.00
8286;BME280;4181;43.416;24.598;2023-03-24T09:00:37;100046.84;;;24.23;100.00
8286;BME280;4181;43.416;24.598;2023-03-24T09:03:03;100045.03;;;24.06;100.00
8286;BME280;4181;43.416;24.598;2023-03-24T09:05:30;100013.25;;;23.87;100.00
8286;BME280;4181;43.416;24.598;2023-03-24T09:07:56;100049.47;;;23.87;100.00
8286;BME280;4181;43.416;24.598;2023-03-24T09:10:25;100026.91;;;23.79;100.00
8286;BME280;4181;43.416;24.598;2023-03-24T09:12:50;100044.34;;;24.09;100.00
8286;BME280;4181;43.416;24.598;2023-03-24T09:15:16;100040.78;;;24.21;100.00
8286;BME280;4181;43.416;24.598;2023-03-24T09:17:42;100040.34;;;23.77;100.00
8286;BME280;4181;43.416;24.598;2023-03-24T09:20:10;100028.72;;;23.75;100.00
8286;BME280;4181;43.416;24.598;2023-03-24T09:22:41;100033.91;;;23.65;100.00
8286;BME280;4181;43.416;24.598;2023-03-24T09:25:09;100032.25;;;23.85;100.00
8286;BME280;4181;43.416;24.598;2023-03-24T09:27:36;100030.19;;;24.14;100.00
8286;BME280;4181;43.416;24.598;2023-03-24T09:30:02;100036.06;;;24.01;100.00
8286;BME280;4181;43.416;24.598;2023-03-24T09:32:27;100029.13;;;23.86;100.00
8286;BME280;4181;43.416;24.598;2023-03-24T09:34:53;100027.41;;;23.94;100.00
8286;BME280;4181;43.416;24.598;2023-03-24T09:37:18;100021.72;;;24.11;100.00
8286;BME280;4181;43.416;24.598;2023-03-24T09:39:44;100011.31;;;24.32;100.00
8286;BME280;4181;43.416;24.598;2023-03-24T09:42:24;100020.84;;;24.31;100.00
8286;BME280;4181;43.416;24.598;2023-03-24T09:44:56;100019.75;;;24.11;100.00
8286;BME280;4181;43.416;24.598;2023-03-24T09:49:48;100020.31;;;24.05;100.00
8286;BME280;4181;43.416;24.598;2023-03-24T09:52:20;100014.66;;;24.13;100.00
8286;BME280;4181;43.416;24.598;2023-03-24T09:54:52;100018.13;;;24.22;100.00
8286;BME280;4181;43.416;24.598;2023-03-24T09:57:38;100023.47;;;23.95;100.00
8286;BME280;4181;43.416;24.598;2023-03-24T10:00:31;100008.13;;;24.09;100.00
8286;BME280;4181;43.416;24.598;2023-03-24T10:03:20;100017.22;;;23.98;100.00
8286;BME280;4181;43.416;24.598;2023-03-24T10:08:36;100005.31;;;23.56;100.00
8286;BME280;4181;43.416;24.598;2023-03-24T10:11:22;100013.91;;;23.83;100.00
8286;BME280;4181;43.416;24.598;2023-03-24T10:14:05;100010.47;;;23.87;100.00
8286;BME280;4181;43.416;24.598;2023-03-24T10:16:44;100000.22;;;24.11;100.00
8286;BME280;4181;43.416;24.598;2023-03-24T10:24:41;99979.50;;;24.45;100.00
8286;BME280;4181;43.416;24.598;2023-03-24T10:28:13;99976.91;;;24.28;100.00
8286;BME280;4181;43.416;24.598;2023-03-24T10:30:22;100004.75;;;23.83;100.00
8286;BME280;4181;43.416;24.598;2023-03-24T10:32:48;99988.31;;;23.69;100.00
8286;BME280;4181;43.416;24.598;2023-03-24T10:35:21;99995.22;;;23.22;100.00
8286;BME280;4181;43.416;24.598;2023-03-24T10:37:47;100007.97;;;23.23;100.00
8286;BME280;4181;43.416;24.598;2023-03-24T10:40:19;100008.09;;;23.35;100.00
8286;BME280;4181;43.416;24.598;2023-03-24T10:42:49;99990.75;;;23.50;100.00
8286;BME280;4181;43.416;24.598;2023-03-24T10:45:31;99985.59;;;23.82;100.00
8286;BME280;4181;43.416;24.598;2023-03-24T10:47:59;99984.31;;;24.12;100.00
8286;BME280;4181;43.416;24.598;2023-03-24T10:50:27;99989.16;;;24.03;100.00
8286;BME280;4181;43.416;24.598;2023-03-24T10:52:54;99989.50;;;24.01;100.00
8286;BME280;4181;43.416;24.598;2023-03-24T10:55:21;99985.22;;;24.04;100.00
8286;BME280;4181;43.416;24.598;2023-03-24T10:57:55;99982.47;;;23.95;100.00
8286;BME280;4181;43.416;24.598;2023-03-24T11:00:23;99977.22;;;23.82;100.00
8286;BME280;4181;43.416;24.598;2023-03-24T11:02:58;99974.94;;;23.63;100.00
8286;BME280;4181;43.416;24.598;2023-03-24T11:05:32;99972.75;;;23.68;100.00
8286;BME280;4181;43.416;24.598;2023-03-24T11:08:25;99958.75;;;24.10;100.00
8286;BME280;4181;43.416;24.598;2023-03-24T11:10:53;99960.88;;;24.25;100.00
8286;BME280;4181;43.416;24.598;2023-03-24T11:13:26;99942.31;;;24.41;100.00
8286;BME280;4181;43.416;24.598;2023-03-24T11:16:14;99931.59;;;24.67;100.00
8286;BME280;4181;43.416;24.598;2023-03-24T11:19:00;99946.47;;;24.59;100.00
8286;BME280;4181;43.416;24.598;2023-03-24T11:21:33;99938.69;;;24.40;100.00
8286;BME280;4181;43.416;24.598;2023-03-24T11:24:01;99928.00;;;24.42;100.00
8286;BME280;4181;43.416;24.598;2023-03-24T11:26:33;99931.75;;;24.70;100.00
8286;BME280;4181;43.416;24.598;2023-03-24T11:29:05;99928.00;;;24.66;100.00
8286;BME280;4181;43.416;24.598;2023-03-24T11:31:34;99936.13;;;24.23;100.00
8286;BME280;4181;43.416;24.598;2023-03-24T11:34:15;99936.78;;;23.75;100.00
8286;BME280;4181;43.416;24.598;2023-03-24T11:36:55;99927.50;;;23.83;100.00
8286;BME280;4181;43.416;24.598;2023-03-24T11:39:26;99927.16;;;24.06;100.00
8286;BME280;4181;43.416;24.598;2023-03-24T11:42:03;99918.81;;;24.30;100.00
8286;BME280;4181;43.416;24.598;2023-03-24T11:47:33;99912.84;;;24.07;100.00
8286;BME280;4181;43.416;24.598;2023-03-24T11:52:36;99914.44;;;23.63;100.00
8286;BME280;4181;43.416;24.598;2023-03-24T11:55:14;99888.47;;;23.59;100.00
8286;BME280;4181;43.416;24.598;2023-03-24T11:57:57;99902.69;;;23.91;100.00
8286;BME280;4181;43.416;24.598;2023-03-24T12:00:32;99882.66;;;24.09;100.00
8286;BME280;4181;43.416;24.598;2023-03-24T12:03:23;99905.81;;;24.46;100.00
8286;BME280;4181;43.416;24.598;2023-03-24T12:11:50;99884.63;;;24.57;100.00
8286;BME280;4181;43.416;24.598;2023-03-24T12:14:45;99880.13;;;24.52;100.00
8286;BME280;4181;43.416;24.598;2023-03-24T12:17:14;99874.69;;;24.68;100.00
8286;BME280;4181;43.416;24.598;2023-03-24T12:22:25;99877.13;;;24.33;100.00
8286;BME280;4181;43.416;24.598;2023-03-24T12:25:19;99855.03;;;24.28;100.00
8286;BME280;4181;43.416;24.598;2023-03-24T12:39:28;99830.50;;;24.46;100.00
8286;BME280;4181;43.416;24.598;2023-03-24T12:42:06;99829.53;;;24.66;100.00
8286;BME280;4181;43.416;24.598;2023-03-24T12:44:59;99824.78;;;24.78;100.00
8286;BME280;4181;43.416;24.598;2023-03-24T12:47:58;99828.38;;;24.79;100.00
8286;BME280;4181;43.416;24.598;2023-03-24T12:59:05;99817.16;;;24.39;100.00
8286;BME280;4181;43.416;24.598;2023-03-24T13:01:40;99812.50;;;24.31;100.00
8286;BME280;4181;43.416;24.598;2023-03-24T13:04:17;99812.16;;;24.21;100.00
8286;BME280;4181;43.416;24.598;2023-03-24T13:06:52;99813.47;;;24.23;100.00
8286;BME280;4181;43.416;24.598;2023-03-24T13:12:22;99797.31;;;24.17;100.00
8286;BME280;4181;43.416;24.598;2023-03-24T13:17:31;99822.06;;;23.49;100.00
8286;BME280;4181;43.416;24.598;2023-03-24T13:20:00;99804.94;;;23.06;100.00
8286;BME280;4181;43.416;24.598;2023-03-24T13:22:31;99809.34;;;23.07;100.00
8286;BME280;4181;43.416;24.598;2023-03-24T13:24:58;99819.53;;;23.03;100.00
8286;BME280;4181;43.416;24.598;2023-03-24T13:27:28;99801.63;;;22.92;100.00
8286;BME280;4181;43.416;24.598;2023-03-24T13:30:37;99808.22;;;23.20;100.00
8286;BME280;4181;43.416;24.598;2023-03-24T13:33:11;99791.19;;;23.22;100.00
8286;BME280;4181;43.416;24.598;2023-03-24T13:40:49;99789.63;;;23.33;100.00
8286;BME280;4181;43.416;24.598;2023-03-24T13:43:22;99779.25;;;23.21;100.00
8286;BME280;4181;43.416;24.598;2023-03-24T13:46:03;99762.94;;;23.32;100.00
8286;BME280;4181;43.416;24.598;2023-03-24T13:48:59;99755.00;;;23.54;100.00
8286;BME280;4181;43.416;24.598;2023-03-24T13:51:29;99754.75;;;23.59;100.00
8286;BME280;4181;43.416;24.598;2023-03-24T13:56:34;99758.66;;;23.34;100.00
8286;BME280;4181;43.416;24.598;2023-03-24T14:01:37;99744.06;;;23.49;100.00
8286;BME280;4181;43.416;24.598;2023-03-24T14:06:50;99750.34;;;23.58;100.00
8286;BME280;4181;43.416;24.598;2023-03-24T14:14:25;99726.28;;;23.42;100.00
8286;BME280;4181;43.416;24.598;2023-03-24T14:19:30;99741.97;;;23.34;100.00
8286;BME280;4181;43.416;24.598;2023-03-24T14:22:21;99738.84;;;23.15;100.00
8286;BME280;4181;43.416;24.598;2023-03-24T14:24:58;99731.53;;;23.11;100.00
8286;BME280;4181;43.416;24.598;2023-03-24T14:30:04;99732.72;;;23.22;100.00
8286;BME280;4181;43.416;24.598;2023-03-24T14:32:51;99727.09;;;22.98;100.00
8286;BME280;4181;43.416;24.598;2023-03-24T14:35:43;99735.22;;;23.03;100.00
8286;BME280;4181;43.416;24.598;2023-03-24T14:40:41;99733.28;;;23.03;100.00
8286;BME280;4181;43.416;24.598;2023-03-24T14:50:53;99723.22;;;22.78;100.00
8286;BME280;4181;43.416;24.598;2023-03-24T14:53:19;99718.28;;;22.63;100.00
8286;BME280;4181;43.416;24.598;2023-03-24T14:55:46;99718.94;;;22.60;100.00
8286;BME280;4181;43.416;24.598;2023-03-24T14:58:24;99721.72;;;22.60;100.00
8286;BME280;4181;43.416;24.598;2023-03-24T15:00:57;99729.28;;;22.60;100.00
8286;BME280;4181;43.416;24.598;2023-03-24T15:08:35;99713.75;;;22.50;100.00
8286;BME280;4181;43.416;24.598;2023-03-24T15:11:05;99707.47;;;22.62;100.00
8286;BME280;4181;43.416;24.598;2023-03-24T15:16:22;99727.16;;;22.36;100.00
8286;BME280;4181;43.416;24.598;2023-03-24T15:18:59;99698.19;;;22.16;100.00
8286;BME280;4181;43.416;24.598;2023-03-24T15:21:44;99723.41;;;22.32;100.00
8286;BME280;4181;43.416;24.598;2023-03-24T15:24:25;99717.97;;;22.35;100.00
8286;BME280;4181;43.416;24.598;2023-03-24T15:29:33;99718.13;;;22.39;100.00
8286;BME280;4181;43.416;24.598;2023-03-24T15:31:59;99716.72;;;22.33;100.00
8286;BME280;4181;43.416;24.598;2023-03-24T15:37:03;99729.03;;;22.03;100.00
8286;BME280;4181;43.416;24.598;2023-03-24T15:39:37;99709.91;;;22.01;100.00
8286;BME280;4181;43.416;24.598;2023-03-24T15:42:05;99723.06;;;21.84;100.00
8286;BME280;4181;43.416;24.598;2023-03-24T15:44:36;99719.81;;;21.73;100.00
8286;BME280;4181;43.416;24.598;2023-03-24T15:47:03;99710.38;;;21.74;100.00
8286;BME280;4181;43.416;24.598;2023-03-24T15:49:32;99721.66;;;21.78;100.00
8286;BME280;4181;43.416;24.598;2023-03-24T15:52:03;99715.78;;;21.71;100.00
8286;BME280;4181;43.416;24.598;2023-03-24T15:54:47;99721.66;;;21.69;100.00
8286;BME280;4181;43.416;24.598;2023-03-24T15:57:17;99725.25;;;21.70;100.00